KWLD/WLD METAR and TAF weather

Enter ICAO airport designator
Station Type Date Time Source
KWLD METAR 2018/12/10 12:54 UTC NOAA

KWLD 101254Z AUTO 29003KT 8SM CLR M09/M10 A3034 RMK AO2 SLP289 I1000 T10891100


Station Type Date Time Source
KWLD Decoded METAR 2018/12/10 12:54 UTC NOAA

STROTHER FIELD, KS, United States (KWLD) 37-10N 97-02W 350M
Dec 10, 2018 - 07:54 AM EST / 2018.12.10 1254 UTC
Wind: from the WNW (290 degrees) at 3 MPH (3 KT):0
Visibility: 8 mile(s):0
Sky conditions: clear
Temperature: 16.0 F (-8.9 C)
Dew Point: 14.0 F (-10.0 C)
Relative Humidity: 91%
Pressure (altimeter): 30.34 in. Hg (1027 hPa)
ob: KWLD 101254Z AUTO 29003KT 8SM CLR M09/M10 A3034 RMK AO2 SLP289 I1000 T10891100
cycle: 13

Station Type Date Time Source
KWLD TAF UTC NOAA

Error!


Example: see airport list